Time;durP1;ratioP1;P1;durP2;ratioP2;P2;SDS_P1;SDS_P2;PMS_P1;PMS_P2;Temp;Humidity;BMP_temperature;BMP_pressure;BME280_temperature;BME280_humidity;BME280_pressure;Samples;Min_cycle;Max_cycle;Signal;HPM_P1;HPM_P2
2021/07/04 00:00:11;;;;;;;0.43;0.10;;;;;;;14.24;100.00;99160.09;6347628;22;20018;-56
2021/07/04 00:03:15;;;;;;;0.20;0.10;;;;;;;14.30;100.00;99163.66;6346888;22;20029;-55
2021/07/04 00:06:19;;;;;;;1.48;0.22;;;;;;;14.34;100.00;99155.72;6346936;22;20351;-55
2021/07/04 00:09:22;;;;;;;2.17;0.50;;;;;;;14.41;100.00;99153.16;6346828;22;20018;-55
2021/07/04 00:12:26;;;;;;;2.17;0.63;;;;;;;14.42;100.00;99148.31;6347078;22;20030;-55
2021/07/04 00:15:38;;;;;;;2.95;0.50;;;;;;;14.44;100.00;99142.94;6346667;22;20022;-55
2021/07/04 00:18:42;;;;;;;0.98;0.30;;;;;;;14.45;100.00;99136.06;6346645;22;20030;-55
2021/07/04 00:21:45;;;;;;;0.52;0.30;;;;;;;14.47;100.00;99144.69;6346816;22;20029;-55
2021/07/04 00:24:49;;;;;;;2.90;0.68;;;;;;;14.47;100.00;99153.09;6346776;22;20691;-55
2021/07/04 00:27:54;;;;;;;2.20;0.73;;;;;;;14.46;100.00;99148.78;6346480;22;20069;-55
2021/07/04 00:30:58;;;;;;;2.38;0.50;;;;;;;14.45;100.00;99147.25;6346653;22;20022;-55
2021/07/04 00:34:02;;;;;;;0.82;0.20;;;;;;;14.48;100.00;99146.22;6346828;22;20021;-55
2021/07/04 00:37:06;;;;;;;1.27;0.40;;;;;;;14.50;100.00;99143.66;6346770;22;20391;-55
2021/07/04 00:40:11;;;;;;;4.35;0.60;;;;;;;14.55;100.00;99142.13;6327233;22;20025;-55
2021/07/04 00:43:15;;;;;;;2.78;0.73;;;;;;;14.56;100.00;99141.59;6346405;22;20440;-55
2021/07/04 00:46:20;;;;;;;4.90;0.60;;;;;;;14.50;100.00;99132.47;6346727;22;20324;-55
2021/07/04 00:49:23;;;;;;;1.30;0.57;;;;;;;14.48;100.00;99139.84;6346744;22;20116;-55
2021/07/04 00:52:27;;;;;;;2.13;0.52;;;;;;;14.48;100.00;99128.66;6346313;22;20030;-55
2021/07/04 00:55:33;;;;;;;3.20;0.95;;;;;;;14.46;100.00;99125.63;6345772;22;20018;-55
2021/07/04 00:58:36;;;;;;;6.90;0.80;;;;;;;14.44;100.00;99123.34;6309678;22;20026;-55
2021/07/04 01:01:40;;;;;;;2.35;1.02;;;;;;;14.46;100.00;99126.38;6346363;22;20235;-55
2021/07/04 01:04:43;;;;;;;2.10;0.40;;;;;;;14.46;100.00;99123.59;6346445;22;20018;-55
2021/07/04 01:07:47;;;;;;;0.90;0.38;;;;;;;14.51;100.00;99122.75;6346082;22;20025;-56
2021/07/04 01:10:51;;;;;;;13.25;0.77;;;;;;;14.54;100.00;99120.97;6345768;22;20457;-55
2021/07/04 01:13:55;;;;;;;2.00;0.32;;;;;;;14.49;100.00;99114.13;6346013;22;20038;-56
2021/07/04 01:16:58;;;;;;;2.05;0.88;;;;;;;14.42;100.00;99114.69;6346142;22;20037;-55
2021/07/04 01:20:07;;;;;;;2.05;1.00;;;;;;;14.47;100.00;99105.47;6346150;22;20025;-56
2021/07/04 01:23:13;;;;;;;2.75;0.80;;;;;;;14.48;100.00;99109.81;6346125;22;20018;-55
2021/07/04 01:26:16;;;;;;;1.85;0.90;;;;;;;14.42;100.00;99115.44;6346104;22;20022;-55
2021/07/04 01:29:20;;;;;;;3.45;0.75;;;;;;;14.41;100.00;99107.56;6346388;22;20025;-57
2021/07/04 01:32:24;;;;;;;3.60;0.55;;;;;;;14.37;100.00;99104.28;6339689;22;20025;-55
2021/07/04 01:35:27;;;;;;;1.63;0.60;;;;;;;14.35;100.00;99109.66;6346467;22;20025;-55
2021/07/04 01:38:31;;;;;;;1.77;0.95;;;;;;;14.34;100.00;99105.31;6346161;22;20457;-55
2021/07/04 01:41:35;;;;;;;2.00;0.52;;;;;;;14.38;100.00;99103.75;6346396;22;20030;-55
2021/07/04 01:44:38;;;;;;;1.17;0.55;;;;;;;14.38;100.00;99100.19;6345879;22;20022;-55
2021/07/04 01:47:44;;;;;;;1.52;0.52;;;;;;;14.37;100.00;99102.25;6346187;22;20029;-55
2021/07/04 01:50:49;;;;;;;1.08;0.45;;;;;;;14.37;100.00;99099.44;6345947;22;20454;-55
2021/07/04 01:53:53;;;;;;;2.13;0.70;;;;;;;14.39;100.00;99096.13;6346339;22;20025;-55
2021/07/04 01:56:57;;;;;;;2.10;0.68;;;;;;;14.39;100.00;99096.88;6326332;22;20461;-55
2021/07/04 02:00:25;;;;;;;1.60;0.50;;;;;;;14.36;100.00;99088.75;6345995;22;20037;-55
2021/07/04 02:03:28;;;;;;;3.95;0.32;;;;;;;14.34;100.00;99086.47;6345612;22;20027;-55
2021/07/04 02:06:33;;;;;;;2.63;1.20;;;;;;;14.31;100.00;99081.16;6346182;22;20021;-55
2021/07/04 02:09:36;;;;;;;5.45;0.45;;;;;;;14.28;100.00;99070.94;6326521;22;20022;-54
2021/07/04 02:12:40;;;;;;;1.15;0.32;;;;;;;14.24;100.00;99076.06;6345680;22;20029;-54
2021/07/04 02:15:43;;;;;;;2.47;0.20;;;;;;;14.22;100.00;99070.25;6347632;22;20022;-54
2021/07/04 02:18:50;;;;;;;3.55;0.77;;;;;;;14.18;100.00;99061.34;6347590;22;20021;-55
2021/07/04 02:21:54;;;;;;;1.45;0.25;;;;;;;14.12;100.00;99066.97;6347950;22;20021;-54
2021/07/04 02:24:57;;;;;;;1.75;0.40;;;;;;;14.06;100.00;99062.69;6348145;22;20034;-54
2021/07/04 02:28:02;;;;;;;2.58;0.40;;;;;;;13.94;100.00;99059.22;6348353;22;20065;-54
2021/07/04 02:31:06;;;;;;;0.10;0.10;;;;;;;13.81;100.00;99055.47;6347753;22;20018;-54
2021/07/04 02:34:09;;;;;;;0.40;0.30;;;;;;;13.72;100.00;99058.56;6348045;22;20415;-54
2021/07/04 02:37:13;;;;;;;1.90;0.60;;;;;;;13.66;100.00;99050.94;6347181;22;20045;-54
2021/07/04 02:40:17;;;;;;;3.50;0.30;;;;;;;13.61;100.00;99048.97;6347802;22;20026;-54
2021/07/04 02:43:23;;;;;;;3.13;0.52;;;;;;;13.58;100.00;99049.97;6348311;22;20037;-54
2021/07/04 02:46:27;;;;;;;1.23;0.40;;;;;;;13.51;100.00;99039.31;6347895;22;20022;-55
2021/07/04 02:49:30;;;;;;;0.40;0.10;;;;;;;13.51;100.00;99050.50;6348292;22;20339;-54
2021/07/04 02:52:34;;;;;;;1.08;0.20;;;;;;;13.50;100.00;99048.22;6348243;22;20022;-54
2021/07/04 02:55:38;;;;;;;2.55;0.47;;;;;;;13.50;100.00;99046.22;6348136;22;20046;-54
2021/07/04 02:58:41;;;;;;;0.40;0.30;;;;;;;13.50;100.00;99043.41;6347942;22;20022;-54
2021/07/04 03:01:45;;;;;;;3.35;0.82;;;;;;;13.46;100.00;99036.56;6348046;22;20026;-54
2021/07/04 03:04:49;;;;;;;0.60;0.43;;;;;;;13.38;100.00;99039.13;6330398;22;20027;-55
2021/07/04 03:07:52;;;;;;;2.97;0.93;;;;;;;13.26;100.00;99046.03;6350206;22;20025;-54
2021/07/04 03:10:56;;;;;;;0.88;0.55;;;;;;;13.17;100.00;99037.16;6330370;22;20319;-54
2021/07/04 03:13:59;;;;;;;1.30;0.43;;;;;;;13.06;100.00;99040.00;6349867;22;20065;-54
2021/07/04 03:17:03;;;;;;;1.42;0.50;;;;;;;13.01;100.00;99035.94;6350418;22;20088;-55
2021/07/04 03:20:09;;;;;;;3.25;0.38;;;;;;;12.91;100.00;99038.22;6350140;22;20029;-55
2021/07/04 03:23:13;;;;;;;3.20;0.65;;;;;;;12.88;100.00;99032.91;6350117;22;20030;-55
2021/07/04 03:26:20;;;;;;;1.60;0.40;;;;;;;12.77;100.00;99030.13;6349762;22;20026;-54
2021/07/04 03:29:23;;;;;;;1.15;0.93;;;;;;;12.73;100.00;99032.44;6350178;22;20022;-55
2021/07/04 03:32:27;;;;;;;3.17;0.65;;;;;;;12.66;100.00;99036.50;6343091;22;20022;-54
2021/07/04 03:35:30;;;;;;;0.25;0.20;;;;;;;12.60;100.00;99051.75;6349697;22;20021;-54
2021/07/04 03:38:33;;;;;;;5.30;0.45;;;;;;;12.64;100.00;99055.03;6349673;22;20025;-54
2021/07/04 03:41:37;;;;;;;2.60;0.70;;;;;;;12.60;100.00;99057.31;6350038;22;20030;-54
2021/07/04 03:44:41;;;;;;;3.40;0.30;;;;;;;12.61;100.00;99050.44;6349733;22;20022;-54
2021/07/04 03:47:45;;;;;;;0.90;0.30;;;;;;;12.60;100.00;99052.50;6349430;22;20017;-54
2021/07/04 03:50:48;;;;;;;10.52;0.57;;;;;;;12.63;100.00;99056.28;6349088;22;20033;-54
2021/07/04 03:53:51;;;;;;;0.55;0.35;;;;;;;12.65;100.00;99054.50;6349836;22;20042;-54
2021/07/04 03:56:55;;;;;;;1.15;0.68;;;;;;;12.68;100.00;99052.75;6349433;22;20354;-54
2021/07/04 04:00:00;;;;;;;0.55;0.20;;;;;;;12.75;100.00;99052.22;6349303;22;20026;-54
2021/07/04 04:03:04;;;;;;;1.00;0.40;;;;;;;12.82;100.00;99054.50;6330788;22;20026;-54
2021/07/04 04:06:07;;;;;;;0.43;0.30;;;;;;;12.92;100.00;99056.53;6349915;22;20041;-54
2021/07/04 04:09:11;;;;;;;2.60;0.82;;;;;;;12.96;100.00;99059.06;6349441;22;20050;-54
2021/07/04 04:12:14;;;;;;;1.00;0.40;;;;;;;13.03;100.00;99052.94;6349250;22;20466;-54
2021/07/04 04:15:17;;;;;;;0.57;0.30;;;;;;;13.18;100.00;99061.84;6349119;22;20116;-54
2021/07/04 04:18:21;;;;;;;4.13;0.63;;;;;;;13.25;100.00;99061.31;6349802;22;20033;-55
2021/07/04 04:21:24;;;;;;;0.95;0.52;;;;;;;13.29;100.00;99059.00;6349250;22;20022;-55
2021/07/04 04:24:28;;;;;;;0.93;0.20;;;;;;;13.30;100.00;99060.50;6349110;22;20030;-54
2021/07/04 04:27:31;;;;;;;2.97;0.52;;;;;;;13.38;100.00;99057.97;6348844;22;20026;-55
2021/07/04 04:30:35;;;;;;;1.20;0.40;;;;;;;13.48;100.00;99056.38;6330377;22;20022;-55
2021/07/04 04:33:38;;;;;;;0.50;0.47;;;;;;;13.54;100.00;99055.09;6349334;22;20030;-55
2021/07/04 04:36:42;;;;;;;2.05;0.45;;;;;;;13.61;100.00;99054.56;6349049;22;20017;-54
2021/07/04 04:39:46;;;;;;;0.30;0.30;;;;;;;13.67;100.00;99054.50;6349711;22;20021;-54
2021/07/04 04:42:49;;;;;;;1.60;0.85;;;;;;;13.72;100.00;99048.13;6349435;22;20022;-54
2021/07/04 04:45:53;;;;;;;1.40;0.85;;;;;;;13.82;100.00;99057.75;6349372;22;20056;-54
2021/07/04 04:48:57;;;;;;;1.08;0.30;;;;;;;13.87;100.00;99053.41;6349230;22;20026;-54
2021/07/04 04:52:02;;;;;;;3.83;0.13;;;;;;;13.92;100.00;99052.63;6349497;22;20473;-54
2021/07/04 04:55:07;;;;;;;2.13;0.77;;;;;;;13.95;100.00;99043.94;6349455;22;20018;-54
2021/07/04 04:58:11;;;;;;;3.33;0.20;;;;;;;14.03;100.00;99052.53;6349612;22;20022;-55
2021/07/04 05:01:15;;;;;;;0.70;0.40;;;;;;;14.06;100.00;99054.28;6348683;22;20025;-54
2021/07/04 05:04:18;;;;;;;2.60;0.25;;;;;;;14.10;100.00;99043.56;6348994;22;20030;-54
2021/07/04 05:07:22;;;;;;;1.63;0.55;;;;;;;14.16;100.00;99047.13;6348708;22;20438;-54
2021/07/04 05:10:26;;;;;;;0.20;0.10;;;;;;;14.24;100.00;99032.03;6347732;22;20021;-54
2021/07/04 05:13:30;;;;;;;0.95;0.20;;;;;;;14.32;100.00;99041.41;6348194;22;20544;-54
2021/07/04 05:16:33;;;;;;;0.68;0.20;;;;;;;14.39;100.00;99040.09;6348798;22;20026;-54
2021/07/04 05:19:36;;;;;;;1.98;0.80;;;;;;;14.49;100.00;99034.94;6348822;22;20026;-54
2021/07/04 05:22:40;;;;;;;1.00;0.30;;;;;;;14.58;100.00;99024.13;6349077;22;20026;-54
2021/07/04 05:25:43;;;;;;;3.97;0.50;;;;;;;14.68;100.00;99024.56;6348469;22;20026;-54
2021/07/04 05:28:46;;;;;;;7.60;0.57;;;;;;;14.73;100.00;99021.69;6349284;22;20461;-54
2021/07/04 05:31:50;;;;;;;1.48;0.40;;;;;;;14.80;100.00;99015.53;6344914;22;20029;-54
2021/07/04 05:34:54;;;;;;;2.25;0.50;;;;;;;14.90;100.00;99007.53;6349145;22;20021;-54
2021/07/04 05:37:58;;;;;;;2.05;0.45;;;;;;;15.01;100.00;99007.38;6348864;22;20021;-54
2021/07/04 05:41:01;;;;;;;1.02;0.63;;;;;;;15.15;100.00;99018.22;6349090;22;20026;-54
2021/07/04 05:44:05;;;;;;;2.20;0.32;;;;;;;15.26;100.00;99013.75;6349234;22;20026;-54
2021/07/04 05:47:10;;;;;;;0.63;0.20;;;;;;;15.41;100.00;99023.25;6348932;22;20072;-54
2021/07/04 05:50:13;;;;;;;0.98;0.20;;;;;;;15.54;100.00;99020.56;6329454;22;20026;-54
2021/07/04 05:53:17;;;;;;;1.27;0.73;;;;;;;15.70;100.00;99016.78;6349193;22;20022;-55
2021/07/04 05:56:20;;;;;;;0.98;0.20;;;;;;;15.81;100.00;99015.84;6349018;22;20104;-55
2021/07/04 05:59:23;;;;;;;0.52;0.25;;;;;;;15.90;100.00;99012.66;6348986;22;20021;-54
2021/07/04 06:02:27;;;;;;;1.58;0.70;;;;;;;15.99;100.00;99015.09;6348539;22;20037;-55
2021/07/04 06:05:30;;;;;;;1.85;0.60;;;;;;;16.01;100.00;99012.50;6348707;22;20018;-54
2021/07/04 06:08:33;;;;;;;3.88;0.32;;;;;;;16.10;100.00;99009.31;6348599;22;20450;-55
2021/07/04 06:11:37;;;;;;;1.35;0.68;;;;;;;16.19;100.00;99010.97;6348763;22;20021;-55
2021/07/04 06:14:40;;;;;;;0.98;0.30;;;;;;;16.37;100.00;99001.75;6348187;22;20021;-55
2021/07/04 06:17:45;;;;;;;2.60;0.70;;;;;;;16.51;100.00;98998.44;6348806;22;20340;-55
2021/07/04 06:20:49;;;;;;;1.27;0.32;;;;;;;16.59;100.00;98993.72;6348925;22;20025;-55
2021/07/04 06:23:52;;;;;;;3.95;0.80;;;;;;;16.60;100.00;98991.66;6348798;22;20391;-54
2021/07/04 06:26:56;;;;;;;1.40;0.70;;;;;;;16.61;100.00;98991.13;6348126;22;20029;-55
2021/07/04 06:29:59;;;;;;;0.88;0.40;;;;;;;16.64;100.00;98984.44;6348684;22;20494;-55
2021/07/04 06:33:02;;;;;;;2.63;0.30;;;;;;;16.58;100.00;98980.97;6339552;22;20046;-54
2021/07/04 06:36:06;;;;;;;3.40;0.85;;;;;;;16.67;100.00;98983.34;6348662;22;20033;-55
2021/07/04 06:39:09;;;;;;;4.60;0.68;;;;;;;16.65;100.00;98979.56;6349917;22;20025;-55
2021/07/04 06:42:12;;;;;;;1.50;0.82;;;;;;;16.57;100.00;98978.66;6350796;22;20465;-55
2021/07/04 06:45:16;;;;;;;2.35;0.75;;;;;;;16.52;100.00;98971.09;6350811;22;20045;-55
2021/07/04 06:48:20;;;;;;;6.57;1.25;;;;;;;16.61;100.00;98968.63;6350716;22;20030;-55
2021/07/04 06:51:24;;;;;;;1.63;0.40;;;;;;;16.65;100.00;98962.69;6350221;22;20462;-55
2021/07/04 06:54:27;;;;;;;1.10;0.47;;;;;;;16.65;100.00;98969.06;6350842;22;20440;-55
2021/07/04 06:57:31;;;;;;;1.38;0.43;;;;;;;16.66;100.00;98967.78;6350610;22;20026;-55
2021/07/04 07:00:35;;;;;;;0.95;0.40;;;;;;;16.68;100.00;98968.00;6350218;22;20018;-55
2021/07/04 07:03:39;;;;;;;2.28;0.50;;;;;;;16.66;100.00;98970.59;6349559;22;20037;-55
2021/07/04 07:06:42;;;;;;;2.63;0.70;;;;;;;16.58;100.00;98975.34;6350350;22;20021;-55
2021/07/04 07:09:47;;;;;;;2.05;0.70;;;;;;;16.65;100.00;98971.88;6350868;22;20022;-55
2021/07/04 07:12:50;;;;;;;1.58;0.60;;;;;;;16.63;100.00;98966.03;6350368;22;20026;-55
2021/07/04 07:15:54;;;;;;;4.32;0.85;;;;;;;16.63;100.00;98971.66;6349510;22;20022;-55
2021/07/04 07:18:57;;;;;;;2.88;0.68;;;;;;;16.64;100.00;98967.56;6349985;22;20021;-55
2021/07/04 07:22:01;;;;;;;2.47;0.60;;;;;;;16.74;100.00;98965.06;6349614;22;20449;-55
2021/07/04 07:25:08;;;;;;;1.25;0.65;;;;;;;16.80;100.00;98967.78;6349595;22;20041;-55
2021/07/04 07:28:11;;;;;;;1.45;0.60;;;;;;;16.81;100.00;98969.28;6349666;22;20022;-55
2021/07/04 07:31:15;;;;;;;3.30;0.75;;;;;;;16.96;100.00;98958.25;6348572;22;20446;-55
2021/07/04 07:34:19;;;;;;;2.20;0.63;;;;;;;17.05;100.00;98966.28;6349774;22;20022;-55
2021/07/04 07:37:23;;;;;;;1.00;0.50;;;;;;;17.22;100.00;98966.69;6350014;22;20018;-55
2021/07/04 07:40:29;;;;;;;3.35;0.93;;;;;;;17.42;100.00;98963.19;6349322;22;20022;-56
2021/07/04 07:43:34;;;;;;;4.40;0.88;;;;;;;17.72;100.00;98955.13;6349660;22;20030;-55
2021/07/04 07:46:38;;;;;;;3.88;0.32;;;;;;;18.06;100.00;98957.94;6349441;22;20030;-55
2021/07/04 07:49:41;;;;;;;0.77;0.20;;;;;;;18.30;100.00;98945.56;6348591;22;20046;-55
2021/07/04 07:52:45;;;;;;;2.92;0.55;;;;;;;18.40;100.00;98943.78;6349428;22;20026;-55
2021/07/04 07:55:49;;;;;;;5.60;0.73;;;;;;;18.45;100.00;98940.81;6349923;22;20013;-55
2021/07/04 07:58:53;;;;;;;3.42;0.68;;;;;;;18.45;100.00;98940.09;6350101;22;20021;-55
2021/07/04 08:01:56;;;;;;;1.88;0.43;;;;;;;18.39;100.00;98936.59;6350044;22;20324;-55
2021/07/04 08:05:00;;;;;;;3.15;0.52;;;;;;;18.26;100.00;98936.72;6349846;22;20327;-55
2021/07/04 08:08:04;;;;;;;1.27;0.43;;;;;;;18.16;100.00;98942.81;6349937;22;20022;-55
2021/07/04 08:11:07;;;;;;;0.60;0.43;;;;;;;18.09;100.00;98937.88;6350046;22;20041;-55
2021/07/04 08:14:11;;;;;;;8.60;0.47;;;;;;;18.16;100.00;98934.38;6350158;22;20328;-55
2021/07/04 08:17:15;;;;;;;1.05;0.30;;;;;;;18.30;100.00;98929.41;6349639;22;20587;-55
2021/07/04 08:20:18;;;;;;;1.10;0.35;;;;;;;18.50;100.00;98934.28;6349853;22;20018;-55
2021/07/04 08:23:22;;;;;;;0.68;0.20;;;;;;;18.47;100.00;98923.38;6349969;22;20025;-55
2021/07/04 08:26:25;;;;;;;1.25;0.40;;;;;;;18.38;100.00;98923.84;6330506;22;20332;-55
2021/07/04 08:29:29;;;;;;;4.53;0.30;;;;;;;18.42;100.00;98918.59;6349190;22;20018;-55
2021/07/04 08:32:33;;;;;;;3.20;0.30;;;;;;;18.30;100.00;98911.75;6342782;22;20699;-55
2021/07/04 08:35:37;;;;;;;1.58;0.52;;;;;;;18.36;100.00;98915.94;6349224;22;20022;-55
2021/07/04 08:38:40;;;;;;;1.45;0.45;;;;;;;18.67;100.00;98917.69;6348883;22;20030;-55
2021/07/04 08:41:43;;;;;;;4.75;0.93;;;;;;;18.93;100.00;98908.25;6349141;22;20030;-55
2021/07/04 08:44:53;;;;;;;1.38;0.22;;;;;;;19.24;100.00;98906.34;6349688;22;20041;-55
2021/07/04 08:47:58;;;;;;;2.45;0.50;;;;;;;19.12;100.00;98916.44;6349422;22;20041;-55
2021/07/04 08:51:03;;;;;;;1.60;0.40;;;;;;;18.72;100.00;98918.84;6349023;22;20022;-56
2021/07/04 08:54:07;;;;;;;3.67;0.90;;;;;;;18.58;100.00;98920.28;6349175;22;20462;-55
2021/07/04 08:57:11;;;;;;;2.33;0.50;;;;;;;18.46;100.00;98902.13;6349607;22;20018;-54
2021/07/04 09:00:17;;;;;;;3.22;0.68;;;;;;;18.45;100.00;98911.91;6349398;22;20033;-54
2021/07/04 09:03:25;;;;;;;1.27;0.20;;;;;;;18.54;100.00;98908.56;6349299;22;20018;-54
2021/07/04 09:06:40;;;;;;;5.13;1.08;;;;;;;18.56;100.00;98900.31;6349029;22;20026;-54
2021/07/04 09:09:55;;;;;;;10.15;1.83;;;;;;;18.50;100.00;98896.88;6349463;22;20021;-54
2021/07/04 09:13:03;;;;;;;4.72;1.17;;;;;;;18.22;100.00;98894.00;6349070;22;20018;-55
2021/07/04 09:16:09;;;;;;;3.08;0.90;;;;;;;17.98;100.00;98890.25;6348634;22;20017;-54
2021/07/04 09:19:15;;;;;;;2.38;0.30;;;;;;;17.93;100.00;98890.41;6348375;22;20025;-55
2021/07/04 09:22:26;;;;;;;1.00;0.50;;;;;;;17.91;100.00;98898.63;6348550;22;20037;-55
2021/07/04 09:25:35;;;;;;;5.30;0.40;;;;;;;18.04;100.00;98890.84;6349040;22;20320;-54
2021/07/04 09:28:43;;;;;;;3.28;0.57;;;;;;;18.02;100.00;98881.44;6349075;22;20080;-54
2021/07/04 09:31:47;;;;;;;5.72;1.50;;;;;;;18.22;100.00;98877.09;6345755;22;20316;-55
2021/07/04 09:35:03;;;;;;;5.35;1.15;;;;;;;18.48;100.00;98879.75;6349179;22;20446;-55
2021/07/04 09:38:15;;;;;;;2.55;0.90;;;;;;;18.50;100.00;98868.69;6348980;22;20018;-55
2021/07/04 09:41:18;;;;;;;4.03;0.45;;;;;;;18.46;100.00;98868.28;6348583;22;20351;-55
2021/07/04 09:44:23;;;;;;;2.83;0.75;;;;;;;18.67;100.00;98864.09;6348480;22;20021;-55
2021/07/04 09:47:26;;;;;;;2.00;0.75;;;;;;;18.46;100.00;98865.47;6348521;22;20025;-55
2021/07/04 09:50:37;;;;;;;2.50;0.80;;;;;;;18.43;100.00;98864.47;6348771;22;20022;-55
2021/07/04 09:53:45;;;;;;;1.75;0.60;;;;;;;18.56;100.00;98858.75;6348719;22;20343;-55
2021/07/04 09:56:55;;;;;;;5.07;0.90;;;;;;;18.68;100.00;98868.44;6349006;22;20038;-55
2021/07/04 10:00:12;;;;;;;6.63;0.90;;;;;;;19.19;100.00;98860.00;6348986;22;20021;-55
2021/07/04 10:03:19;;;;;;;12.18;0.73;;;;;;;19.60;100.00;98854.13;6349042;22;20026;-55
2021/07/04 10:06:22;;;;;;;2.80;0.32;;;;;;;20.23;100.00;98851.56;6348483;22;20073;-55
2021/07/04 10:09:28;;;;;;;2.20;0.30;;;;;;;20.52;100.00;98838.72;6348223;22;20026;-55
2021/07/04 10:12:32;;;;;;;1.67;0.30;;;;;;;20.57;100.00;98834.94;6347775;22;20026;-55
2021/07/04 10:15:40;;;;;;;1.30;0.40;;;;;;;20.45;100.00;98831.00;6348419;22;20455;-55
2021/07/04 10:18:46;;;;;;;8.32;1.58;;;;;;;20.00;100.00;98833.84;6347981;22;20312;-55
2021/07/04 10:22:02;;;;;;;2.42;0.52;;;;;;;19.50;100.00;98833.41;6348402;22;20023;-55
2021/07/04 10:25:07;;;;;;;2.72;0.47;;;;;;;19.36;100.00;98837.69;6348633;22;20042;-55
2021/07/04 10:28:18;;;;;;;6.43;0.70;;;;;;;19.28;100.00;98822.03;6348472;22;20021;-55
2021/07/04 10:31:22;;;;;;;1.92;0.20;;;;;;;19.20;100.00;98826.91;6343573;22;20343;-55
2021/07/04 10:34:41;;;;;;;0.88;0.30;;;;;;;19.05;100.00;98824.78;6338449;22;20019;-55
2021/07/04 10:37:45;;;;;;;0.88;0.50;;;;;;;18.91;100.00;98826.22;6348718;22;20311;-53
2021/07/04 10:40:48;;;;;;;0.57;0.13;;;;;;;18.60;100.00;98827.41;6348726;22;20466;-52
2021/07/04 10:43:51;;;;;;;0.20;0.10;;;;;;;18.30;100.00;98824.38;6348532;22;20312;-51
2021/07/04 10:46:58;;;;;;;0.35;0.10;;;;;;;18.12;100.00;98821.25;6348462;22;20022;-50
2021/07/04 10:50:10;;;;;;;1.60;0.10;;;;;;;17.89;100.00;98828.75;6347638;22;20026;-54
2021/07/04 10:54:01;;;;;;;0.63;0.30;;;;;;;18.14;100.00;98824.25;6348258;22;20026;-54
2021/07/04 10:57:34;;;;;;;1.38;0.60;;;;;;;18.64;100.00;98816.50;6347898;22;20026;-54
2021/07/04 11:00:42;;;;;;;4.35;0.63;;;;;;;18.96;100.00;98814.03;6348423;22;20335;-54
2021/07/04 11:03:46;;;;;;;1.25;0.45;;;;;;;19.25;100.00;98801.31;6348117;22;20466;-54
2021/07/04 11:06:59;;;;;;;2.60;0.43;;;;;;;19.07;100.00;98802.41;6347474;22;20022;-54
2021/07/04 11:10:02;;;;;;;0.40;0.10;;;;;;;18.81;100.00;98813.97;6347725;22;20022;-55
2021/07/04 11:13:13;;;;;;;2.20;0.35;;;;;;;18.72;100.00;98811.66;6347918;22;20022;-53
2021/07/04 11:16:18;;;;;;;;;;;;;;;18.75;100.00;98816.94;6348820;22;20013;-53
2021/07/04 11:19:21;;;;;;;0.63;0.20;;;;;;;18.67;100.00;98821.78;6347532;22;19907;-52
2021/07/04 11:22:53;;;;;;;3.83;0.30;;;;;;;18.60;100.00;98813.31;6348110;22;20038;-53
2021/07/04 11:25:59;;;;;;;0.98;0.40;;;;;;;18.75;100.00;98805.66;6349326;22;20399;-52
2021/07/04 11:29:10;;;;;;;0.88;0.38;;;;;;;18.98;100.00;98805.75;6349968;22;20025;-52
2021/07/04 11:32:23;;;;;;;3.13;0.40;;;;;;;19.09;100.00;98805.41;6343991;22;20339;-53
2021/07/04 11:35:40;;;;;;;3.30;0.20;;;;;;;19.11;100.00;98808.44;6350125;22;20025;-52
2021/07/04 11:39:05;;;;;;;0.45;0.38;;;;;;;18.95;100.00;98808.94;6349787;22;20021;-52
2021/07/04 11:42:09;;;;;;;0.73;0.30;;;;;;;18.54;100.00;98807.03;6349947;22;20022;-52
2021/07/04 11:45:16;;;;;;;0.50;0.20;;;;;;;18.28;100.00;98801.63;6349487;22;20073;-52
2021/07/04 11:48:23;;;;;;;0.30;0.22;;;;;;;18.27;100.00;98808.56;6349567;22;20466;-53
2021/07/04 11:51:31;;;;;;;0.77;0.20;;;;;;;18.35;100.00;98812.16;6349444;22;20022;-53
2021/07/04 11:54:35;;;;;;;3.90;0.20;;;;;;;18.51;100.00;98808.94;6349787;22;20666;-53
2021/07/04 11:57:42;;;;;;;0.95;0.10;;;;;;;18.68;100.00;98811.28;6329968;22;20018;-53
2021/07/04 12:00:47;;;;;;;0.73;0.17;;;;;;;18.88;100.00;98813.25;6349928;22;20466;-54
2021/07/04 12:03:55;;;;;;;0.63;0.10;;;;;;;19.16;100.00;98810.34;6349612;22;20021;-54
2021/07/04 12:07:05;;;;;;;1.08;0.30;;;;;;;19.31;100.00;98790.63;6349788;22;20026;-54
2021/07/04 12:10:10;;;;;;;1.63;0.20;;;;;;;19.50;100.00;98788.22;6349320;22;20454;-54
2021/07/04 12:13:13;;;;;;;1.38;0.10;;;;;;;19.67;100.00;98785.59;6349810;22;20022;-54
2021/07/04 12:16:17;;;;;;;0.80;0.13;;;;;;;19.91;100.00;98775.03;6349570;22;20018;-54
2021/07/04 12:19:28;;;;;;;1.17;0.35;;;;;;;19.94;100.00;98768.28;6330622;22;20025;-54
2021/07/04 12:22:39;;;;;;;0.30;0.10;;;;;;;20.35;100.00;98765.03;6349215;22;20468;-54
2021/07/04 12:25:42;;;;;;;2.33;0.20;;;;;;;20.36;100.00;98758.03;6349574;22;20034;-54
2021/07/04 12:28:48;;;;;;;4.80;0.35;;;;;;;20.58;100.00;98760.06;6349762;22;20043;-54
2021/07/04 12:32:03;;;;;;;0.13;0.00;;;;;;;20.74;100.00;98755.84;6345640;22;20030;-54
2021/07/04 12:35:09;;;;;;;0.20;0.10;;;;;;;20.69;100.00;98756.03;6330621;22;20041;-54
2021/07/04 12:38:33;;;;;;;0.15;0.00;;;;;;;20.57;100.00;98752.91;6349302;22;20030;-54
2021/07/04 12:41:37;;;;;;;0.77;0.25;;;;;;;20.65;100.00;98745.13;6347492;22;20041;-54
2021/07/04 12:44:41;;;;;;;0.30;0.00;;;;;;;20.61;100.00;98733.47;6348195;22;20347;-54
2021/07/04 12:47:56;;;;;;;0.38;0.10;;;;;;;20.59;100.00;98729.69;6347763;22;20037;-54
2021/07/04 12:51:02;;;;;;;6.00;0.10;;;;;;;21.07;100.00;98734.00;6348571;22;20026;-53
2021/07/04 12:54:18;;;;;;;0.00;0.00;;;;;;;21.62;100.00;98736.63;6349747;22;20047;-53
2021/07/04 12:57:39;;;;;;;0.75;0.10;;;;;;;21.57;100.00;98720.63;6243785;22;20012;-53
2021/07/04 13:00:42;;;;;;;1.45;0.00;;;;;;;21.65;100.00;98735.50;6256781;23;20031;-53
2021/07/04 13:03:52;;;;;;;1.20;0.20;;;;;;;21.99;100.00;98735.59;6255648;23;20046;-53
2021/07/04 13:07:01;;;;;;;0.10;0.00;;;;;;;21.92;100.00;98719.38;6254859;23;20023;-54
2021/07/04 13:10:04;;;;;;;0.30;0.08;;;;;;;21.42;100.00;98717.94;6255820;23;20026;-53
2021/07/04 13:13:09;;;;;;;0.00;0.00;;;;;;;21.30;100.00;98705.53;6256145;23;20020;-54
2021/07/04 13:16:13;;;;;;;1.08;0.10;;;;;;;21.41;100.00;98705.84;6256168;23;20023;-53
2021/07/04 13:19:23;;;;;;;0.00;0.00;;;;;;;21.58;100.00;98702.28;6256300;23;20026;-54
2021/07/04 13:22:28;;;;;;;0.20;0.00;;;;;;;21.51;100.00;98703.09;6255994;23;20043;-53
2021/07/04 13:25:33;;;;;;;0.17;0.10;;;;;;;21.16;100.00;98710.00;6255943;23;20031;-53
2021/07/04 13:28:37;;;;;;;2.28;0.20;;;;;;;20.56;100.00;98714.59;6256257;23;20313;-53
2021/07/04 13:31:40;;;;;;;0.20;0.10;;;;;;;20.02;100.00;98709.66;6253390;23;20031;-53
2021/07/04 13:34:50;;;;;;;1.80;0.30;;;;;;;19.74;100.00;98713.47;6255045;23;20019;-53
2021/07/04 13:37:57;;;;;;;2.30;0.10;;;;;;;19.51;100.00;98721.94;6256236;23;20023;-53
2021/07/04 13:41:00;;;;;;;0.45;0.10;;;;;;;19.32;100.00;98732.06;6256419;23;20035;-53
2021/07/04 13:44:04;;;;;;;0.30;0.15;;;;;;;19.28;100.00;98726.03;6256461;23;20038;-53
2021/07/04 13:47:07;;;;;;;0.57;0.30;;;;;;;19.49;100.00;98724.56;6255840;23;20322;-53
2021/07/04 13:50:10;;;;;;;0.45;0.00;;;;;;;19.84;100.00;98722.13;6255796;23;20035;-53
2021/07/04 13:53:15;;;;;;;0.10;0.10;;;;;;;19.96;100.00;98721.16;6256299;23;20027;-53
2021/07/04 13:56:18;;;;;;;1.77;0.13;;;;;;;20.09;100.00;98714.53;6255983;23;20023;-53
2021/07/04 13:59:22;;;;;;;0.10;0.10;;;;;;;20.22;100.00;98714.34;6255840;23;20023;-53
2021/07/04 14:02:25;;;;;;;0.43;0.30;;;;;;;20.22;100.00;98711.53;6256244;23;20023;-53
2021/07/04 14:05:29;;;;;;;1.17;0.30;;;;;;;20.60;100.00;98712.13;6255945;23;20027;-53
2021/07/04 14:08:32;;;;;;;0.13;0.00;;;;;;;21.04;100.00;98696.28;6255458;23;20376;-53
2021/07/04 14:11:36;;;;;;;0.57;0.10;;;;;;;21.28;100.00;98694.78;6255842;23;20030;-54
2021/07/04 14:14:40;;;;;;;0.30;0.10;;;;;;;21.30;100.00;98699.88;6256004;23;20436;-53
2021/07/04 14:17:44;;;;;;;2.08;0.30;;;;;;;20.97;100.00;98685.72;6255914;23;20038;-54
2021/07/04 14:20:48;;;;;;;3.10;0.20;;;;;;;20.68;100.00;98681.72;6255640;23;20023;-54